createdAt,value
2019-02-28T00:01:43.205Z,23.70
2019-02-28T00:04:14.048Z,27.17
2019-02-28T00:06:45.160Z,25.63
2019-02-28T00:09:16.029Z,23.43
2019-02-28T00:11:46.350Z,24.33
2019-02-28T00:14:16.696Z,24.87
2019-02-28T00:16:47.021Z,23.60
2019-02-28T00:19:17.365Z,22.03
2019-02-28T00:21:47.731Z,25.73
2019-02-28T00:24:18.060Z,26.77
2019-02-28T00:26:48.432Z,24.67
2019-02-28T00:29:18.748Z,26.10
2019-02-28T00:31:49.906Z,24.23
2019-02-28T00:34:21.119Z,24.87
2019-02-28T00:36:53.364Z,23.67
2019-02-28T00:39:23.506Z,26.57
2019-02-28T00:41:53.926Z,23.13
2019-02-28T00:44:24.242Z,23.07
2019-02-28T00:46:54.606Z,22.63
2019-02-28T00:49:25.117Z,23.97
2019-02-28T00:51:55.432Z,24.60
2019-02-28T00:54:25.770Z,21.33
2019-02-28T00:56:56.137Z,21.83
2019-02-28T00:59:26.443Z,22.00
2019-02-28T01:01:56.790Z,20.83
2019-02-28T01:04:29.956Z,21.33
2019-02-28T01:06:59.084Z,21.60
2019-02-28T01:09:30.171Z,22.37
2019-02-28T01:12:01.359Z,22.83
2019-02-28T01:14:32.367Z,21.87
2019-02-28T01:17:03.717Z,23.90
2019-02-28T01:19:34.152Z,20.30
2019-02-28T01:22:04.492Z,21.47
2019-02-28T01:24:35.498Z,20.87
2019-02-28T01:27:05.897Z,20.07
2019-02-28T01:29:36.422Z,21.23
2019-02-28T01:32:06.859Z,25.93
2019-02-28T01:34:37.185Z,25.13
2019-02-28T01:37:07.563Z,22.17
2019-02-28T01:39:37.875Z,23.87
2019-02-28T01:42:08.236Z,24.83
2019-02-28T01:44:38.550Z,24.47
2019-02-28T01:47:08.889Z,23.60
2019-02-28T01:49:39.217Z,21.47
2019-02-28T01:52:10.086Z,21.50
2019-02-28T01:54:41.088Z,24.33
2019-02-28T01:57:11.442Z,21.87
2019-02-28T01:59:41.751Z,21.27
2019-02-28T02:02:12.315Z,20.53
2019-02-28T02:04:43.172Z,19.42
2019-02-28T02:07:14.898Z,18.43
2019-02-28T02:09:46.118Z,19.27
2019-02-28T02:12:17.414Z,19.80
2019-02-28T02:14:47.838Z,17.62
2019-02-28T02:17:19.285Z,20.37
2019-02-28T02:19:52.149Z,17.73
2019-02-28T02:22:22.066Z,17.40
2019-02-28T02:24:52.775Z,15.83
2019-02-28T02:27:24.132Z,20.63
2019-02-28T02:29:54.851Z,18.47
2019-02-28T02:32:25.301Z,16.07
2019-02-28T02:34:55.724Z,16.83
2019-02-28T02:37:26.396Z,14.40
2019-02-28T02:39:58.070Z,15.93
2019-02-28T02:42:28.473Z,15.37
2019-02-28T02:44:59.052Z,16.90
2019-02-28T02:47:32.404Z,16.87
2019-02-28T02:50:02.363Z,15.47
2019-02-28T02:52:32.815Z,16.00
2019-02-28T02:55:03.205Z,14.10
2019-02-28T02:57:33.583Z,15.27
2019-02-28T03:00:04.104Z,15.30
2019-02-28T03:02:34.718Z,14.87
2019-02-28T03:05:05.284Z,15.90
2019-02-28T03:07:35.630Z,14.27
2019-02-28T03:10:06.305Z,15.57
2019-02-28T03:12:36.684Z,17.13
2019-02-28T03:15:07.469Z,16.40
2019-02-28T03:17:37.805Z,16.03
2019-02-28T03:20:09.115Z,16.07
2019-02-28T03:22:39.625Z,14.67
2019-02-28T03:25:10.983Z,15.90
2019-02-28T03:27:41.409Z,17.23
2019-02-28T03:30:25.999Z,16.87
2019-02-28T03:32:46.174Z,19.00
2019-02-28T03:35:16.641Z,18.00
2019-02-28T03:37:47.097Z,19.53
2019-02-28T03:40:17.542Z,19.50
2019-02-28T03:42:47.883Z,16.67
2019-02-28T03:45:18.813Z,17.93
2019-02-28T03:47:49.149Z,19.83
2019-02-28T03:50:21.920Z,17.77
2019-02-28T03:52:51.727Z,18.77
2019-02-28T03:55:22.185Z,16.13
2019-02-28T03:57:52.571Z,17.33
2019-02-28T04:00:22.942Z,15.93
2019-02-28T04:02:58.686Z,17.67
2019-02-28T04:05:28.127Z,16.53
2019-02-28T04:07:57.272Z,15.57
2019-02-28T04:10:27.607Z,15.13
2019-02-28T04:12:57.942Z,14.87
2019-02-28T04:15:28.370Z,17.93
2019-02-28T04:17:58.757Z,15.20
2019-02-28T04:20:36.061Z,17.53
2019-02-28T04:23:02.159Z,16.33
2019-02-28T04:25:39.478Z,16.83
2019-02-28T04:28:17.068Z,17.30
2019-02-28T04:30:43.787Z,18.23
2019-02-28T04:33:13.754Z,17.93
2019-02-28T04:35:44.098Z,18.00
2019-02-28T04:38:14.409Z,21.93
2019-02-28T04:40:44.762Z,17.37
2019-02-28T04:43:15.077Z,19.07
2019-02-28T04:45:45.449Z,22.47
2019-02-28T04:48:15.765Z,20.40
2019-02-28T04:50:46.114Z,19.57
2019-02-28T04:53:18.871Z,19.10
2019-02-28T04:55:48.408Z,18.17
2019-02-28T04:58:18.730Z,18.23
2019-02-28T05:00:49.221Z,19.07
2019-02-28T05:03:19.867Z,18.83
2019-02-28T05:05:50.810Z,19.87
2019-02-28T05:08:21.182Z,17.50
2019-02-28T05:10:55.931Z,20.30
2019-02-28T05:13:25.742Z,19.53
2019-02-28T05:15:56.499Z,19.30
2019-02-28T05:18:27.638Z,20.07
2019-02-28T05:20:58.561Z,20.37
2019-02-28T05:23:28.971Z,19.60
2019-02-28T05:25:59.522Z,19.33
2019-02-28T05:28:30.859Z,18.67
2019-02-28T05:31:01.411Z,20.33
2019-02-28T05:33:31.934Z,21.13
2019-02-28T05:36:04.297Z,21.13
2019-02-28T05:38:34.465Z,21.87
2019-02-28T05:41:04.767Z,18.10
2019-02-28T05:43:35.085Z,17.93
2019-02-28T05:46:05.430Z,19.77
2019-02-28T05:48:38.744Z,19.33
2019-02-28T05:51:19.705Z,22.67
2019-02-28T05:53:50.503Z,20.40
2019-02-28T05:56:20.936Z,21.20
2019-02-28T05:58:52.554Z,22.07
2019-02-28T06:01:23.559Z,21.57
2019-02-28T06:03:53.870Z,23.10
2019-02-28T06:06:24.227Z,21.60
2019-02-28T06:08:54.620Z,21.53
2019-02-28T06:11:24.949Z,33.47
2019-02-28T06:13:55.301Z,23.20
2019-02-28T06:16:25.674Z,22.60
2019-02-28T06:18:56.001Z,22.83
2019-02-28T06:21:26.401Z,25.53
2019-02-28T06:23:56.721Z,18.50
2019-02-28T06:26:27.095Z,20.73
2019-02-28T06:28:57.425Z,16.33
2019-02-28T06:31:27.810Z,19.90
2019-02-28T06:33:58.128Z,20.60
2019-02-28T06:36:29.206Z,19.70
2019-02-28T06:39:00.210Z,19.20
2019-02-28T06:41:31.570Z,23.60
2019-02-28T06:44:01.891Z,19.47
2019-02-28T06:46:33.316Z,20.53
2019-02-28T06:49:06.985Z,18.80
2019-02-28T06:51:48.389Z,20.23
2019-02-28T06:54:19.235Z,18.03
2019-02-28T06:56:49.607Z,20.43
2019-02-28T06:59:19.942Z,17.47
2019-02-28T07:01:50.292Z,17.73
2019-02-28T07:04:20.615Z,17.07
2019-02-28T07:06:50.983Z,16.73
2019-02-28T07:09:21.305Z,15.97
2019-02-28T07:11:54.942Z,17.87
2019-02-28T07:14:23.634Z,16.33
2019-02-28T07:16:56.218Z,16.97
2019-02-28T07:19:27.080Z,16.27
2019-02-28T07:21:58.487Z,18.30
2019-02-28T07:24:28.809Z,18.17
2019-02-28T07:26:59.163Z,18.37
2019-02-28T07:29:29.736Z,18.17
2019-02-28T07:32:01.378Z,20.40
2019-02-28T07:34:31.777Z,19.70
2019-02-28T07:37:02.126Z,19.57
2019-02-28T07:39:32.494Z,21.23
2019-02-28T07:42:03.058Z,17.97
2019-02-28T07:44:33.389Z,22.33
2019-02-28T07:47:03.734Z,18.27
2019-02-28T07:49:36.727Z,25.03
2019-02-28T07:52:07.181Z,30.23
2019-02-28T07:54:37.568Z,29.73
2019-02-28T07:57:08.035Z,26.70
2019-02-28T07:59:42.408Z,23.70
2019-02-28T08:02:10.434Z,26.80
2019-02-28T08:04:40.845Z,26.05
2019-02-28T08:07:11.467Z,26.37
2019-02-28T08:09:43.181Z,22.30
2019-02-28T08:12:13.564Z,22.20
2019-02-28T08:14:47.017Z,22.20
2019-02-28T08:17:15.934Z,21.77
2019-02-28T08:19:46.474Z,24.97
2019-02-28T08:22:23.269Z,23.70
2019-02-28T08:24:49.032Z,24.13
2019-02-28T08:27:19.749Z,23.60
2019-02-28T08:29:50.375Z,25.70
2019-02-28T08:32:20.822Z,28.17
2019-02-28T08:34:51.485Z,29.37
2019-02-28T08:37:22.453Z,27.20
2019-02-28T08:39:53.073Z,34.57
2019-02-28T08:42:23.442Z,29.53
2019-02-28T08:44:58.143Z,32.43
2019-02-28T08:47:26.045Z,32.13
2019-02-28T08:49:56.462Z,32.77
2019-02-28T08:52:26.814Z,31.00
2019-02-28T08:54:59.754Z,30.40
2019-02-28T08:57:29.159Z,30.13
2019-02-28T08:59:59.739Z,33.10
2019-02-28T09:02:30.411Z,34.53
2019-02-28T09:05:00.858Z,32.43
2019-02-28T09:07:31.221Z,33.50
2019-02-28T09:10:01.577Z,34.87
2019-02-28T09:12:33.373Z,33.80
2019-02-28T09:15:04.423Z,32.47
2019-02-28T09:17:34.860Z,33.60
2019-02-28T09:20:07.529Z,31.83
2019-02-28T09:22:37.916Z,32.17
2019-02-28T09:25:10.190Z,31.30
2019-02-28T09:27:40.619Z,31.93
2019-02-28T09:30:19.699Z,34.67
2019-02-28T09:32:50.097Z,31.07
2019-02-28T09:35:20.428Z,30.23
2019-02-28T09:37:50.917Z,31.03
2019-02-28T09:40:21.259Z,32.10
2019-02-28T09:42:52.007Z,31.00
2019-02-28T09:45:22.424Z,32.77
2019-02-28T09:47:52.881Z,35.53
2019-02-28T09:50:23.434Z,31.83
2019-02-28T09:52:53.897Z,29.30
2019-02-28T09:55:24.359Z,28.13
2019-02-28T09:57:55.087Z,29.30
2019-02-28T10:00:27.554Z,32.30
2019-02-28T10:02:57.799Z,29.40
2019-02-28T10:05:28.171Z,30.73
2019-02-28T10:08:02.029Z,32.00
2019-02-28T10:10:30.478Z,29.53
2019-02-28T10:13:00.896Z,33.53
2019-02-28T10:15:31.307Z,33.40
2019-02-28T10:18:04.412Z,29.17
2019-02-28T10:20:33.619Z,27.73
2019-02-28T10:23:04.029Z,29.23
2019-02-28T10:25:40.967Z,31.07
2019-02-28T10:28:06.467Z,29.97
2019-02-28T10:30:36.814Z,30.47
2019-02-28T10:33:07.199Z,28.97
2019-02-28T10:35:37.723Z,29.10
2019-02-28T10:38:08.145Z,30.13
2019-02-28T10:40:38.477Z,30.77
2019-02-28T10:43:08.884Z,30.07
2019-02-28T10:45:42.001Z,30.67
2019-02-28T10:48:11.193Z,29.77
2019-02-28T10:50:41.557Z,29.60
2019-02-28T10:53:11.977Z,29.20
2019-02-28T10:55:42.345Z,29.60
2019-02-28T10:58:15.535Z,31.03
2019-02-28T11:00:45.013Z,32.40
2019-02-28T11:03:15.687Z,31.57
2019-02-28T11:05:46.886Z,31.45
2019-02-28T11:08:19.281Z,28.43
2019-02-28T11:10:49.964Z,26.20
2019-02-28T11:13:20.498Z,29.60
2019-02-28T11:15:51.985Z,28.43
2019-02-28T11:18:22.508Z,25.60
2019-02-28T11:20:53.269Z,27.23
2019-02-28T11:23:23.949Z,26.07
2019-02-28T11:25:55.628Z,29.83
2019-02-28T11:28:28.259Z,25.60
2019-02-28T11:30:58.159Z,26.70
2019-02-28T11:33:28.647Z,24.63
2019-02-28T11:35:59.458Z,27.10
2019-02-28T11:38:29.962Z,25.23
2019-02-28T11:41:00.341Z,25.37
2019-02-28T11:43:37.393Z,23.43
2019-02-28T11:46:04.503Z,26.07
2019-02-28T11:48:34.911Z,24.27
2019-02-28T11:51:06.227Z,26.83
2019-02-28T11:53:40.329Z,26.57
2019-02-28T11:56:08.779Z,23.93
2019-02-28T11:58:39.154Z,26.75
2019-02-28T12:01:10.671Z,23.27
2019-02-28T12:03:41.726Z,27.47
2019-02-28T12:06:12.107Z,26.23
2019-02-28T12:08:45.009Z,29.43
2019-02-28T12:11:15.449Z,22.73
2019-02-28T12:13:45.833Z,23.23
2019-02-28T12:16:19.104Z,23.47
2019-02-28T12:18:48.408Z,24.50
2019-02-28T12:21:18.740Z,24.10
2019-02-28T12:23:49.156Z,24.37
2019-02-28T12:26:21.063Z,21.20
2019-02-28T12:28:51.458Z,24.25
2019-02-28T12:31:21.809Z,23.23
2019-02-28T12:33:53.377Z,21.60
2019-02-28T12:36:24.139Z,24.97
2019-02-28T12:38:54.494Z,27.17
2019-02-28T12:41:25.188Z,23.90
2019-02-28T12:43:56.482Z,19.97
2019-02-28T12:46:26.891Z,17.83
2019-02-28T12:48:57.271Z,18.77
2019-02-28T12:51:27.593Z,18.17
2019-02-28T12:53:59.176Z,14.73
2019-02-28T12:56:29.938Z,13.90
2019-02-28T12:59:00.306Z,16.47
2019-02-28T13:01:33.190Z,13.90
2019-02-28T13:04:04.794Z,14.70
2019-02-28T13:06:39.163Z,14.27
2019-02-28T13:09:09.649Z,12.70
2019-02-28T13:11:39.973Z,14.17
2019-02-28T13:14:10.349Z,13.00
2019-02-28T13:16:40.663Z,14.33
2019-02-28T13:19:11.042Z,14.47
2019-02-28T13:21:43.607Z,11.53
2019-02-28T13:24:16.743Z,11.48
2019-02-28T13:26:47.072Z,17.20
2019-02-28T13:29:17.394Z,14.87
2019-02-28T13:31:47.720Z,13.35
2019-02-28T13:34:19.019Z,15.67
2019-02-28T13:36:49.389Z,13.08
2019-02-28T13:39:27.492Z,16.77
2019-02-28T13:41:58.701Z,15.43
2019-02-28T13:44:31.749Z,13.83
2019-02-28T13:47:01.269Z,14.50
2019-02-28T13:49:31.635Z,17.07
2019-02-28T13:52:02.044Z,14.70
2019-02-28T13:54:32.412Z,14.95
2019-02-28T13:57:08.367Z,15.07
2019-02-28T13:59:34.770Z,15.37
2019-02-28T14:02:05.117Z,11.70
2019-02-28T14:04:35.603Z,14.30
2019-02-28T14:07:07.478Z,12.37
2019-02-28T14:09:41.176Z,16.93
2019-02-28T14:12:11.514Z,14.60
2019-02-28T14:14:43.100Z,12.93
2019-02-28T14:17:15.115Z,13.45
2019-02-28T14:19:45.482Z,15.55
2019-02-28T14:22:15.897Z,16.33
2019-02-28T14:24:46.277Z,20.00
2019-02-28T14:27:16.610Z,15.07
2019-02-28T14:29:48.445Z,21.37
2019-02-28T14:32:19.055Z,20.67
2019-02-28T14:34:49.459Z,15.90
2019-02-28T14:37:20.516Z,19.40
2019-02-28T14:39:51.239Z,18.00
2019-02-28T14:42:21.757Z,15.83
2019-02-28T14:44:52.151Z,24.03
2019-02-28T14:47:24.836Z,18.17
2019-02-28T14:49:54.719Z,22.03
2019-02-28T14:52:25.049Z,17.43
2019-02-28T14:54:57.161Z,16.93
2019-02-28T14:57:27.671Z,16.57
2019-02-28T14:59:59.983Z,16.97
2019-02-28T15:02:29.967Z,18.13
2019-02-28T15:05:01.400Z,18.93
2019-02-28T15:07:31.953Z,19.27
2019-02-28T15:10:02.735Z,18.53
2019-02-28T15:12:33.227Z,18.60
2019-02-28T15:15:05.490Z,18.60
2019-02-28T15:17:38.710Z,19.27
2019-02-28T15:20:08.208Z,18.57
2019-02-28T15:22:38.828Z,16.17
2019-02-28T15:25:10.369Z,17.30
2019-02-28T15:27:40.778Z,16.37
2019-02-28T15:30:14.221Z,16.57
2019-02-28T15:32:44.618Z,18.20
2019-02-28T15:35:16.372Z,18.47
2019-02-28T15:37:46.687Z,16.50
2019-02-28T15:40:21.522Z,16.27
2019-02-28T15:42:51.138Z,15.57
2019-02-28T15:45:21.656Z,11.37
2019-02-28T15:47:59.168Z,12.97
2019-02-28T15:50:28.439Z,12.37
2019-02-28T15:52:59.301Z,10.97
2019-02-28T15:55:30.078Z,11.73
2019-02-28T15:58:02.668Z,10.37
2019-02-28T16:00:33.429Z,11.03
2019-02-28T16:03:03.762Z,11.90
2019-02-28T16:05:35.144Z,19.40
2019-02-28T16:08:10.309Z,12.23
2019-02-28T16:10:37.799Z,12.43
2019-02-28T16:13:08.441Z,9.70
2019-02-28T16:15:43.289Z,9.57
2019-02-28T16:18:13.292Z,11.07
2019-02-28T16:20:43.798Z,9.37
2019-02-28T16:23:14.225Z,7.57
2019-02-28T16:25:46.805Z,10.60
2019-02-28T16:28:16.629Z,10.60
2019-02-28T16:30:46.984Z,12.27
2019-02-28T16:33:17.319Z,11.07
2019-02-28T16:35:50.342Z,13.33
2019-02-28T16:38:19.753Z,9.73
2019-02-28T16:40:50.108Z,11.63
2019-02-28T16:43:20.836Z,12.53
2019-02-28T16:45:52.686Z,10.70
2019-02-28T16:48:22.997Z,16.83
2019-02-28T16:50:56.773Z,13.97
2019-02-28T16:53:26.637Z,15.23
2019-02-28T16:55:57.829Z,17.13
2019-02-28T16:58:28.733Z,12.30
2019-02-28T17:00:59.435Z,18.97
2019-02-28T17:03:29.821Z,15.23
2019-02-28T17:06:01.715Z,16.60
2019-02-28T17:08:36.491Z,15.50
2019-02-28T17:11:06.857Z,18.67
2019-02-28T17:13:56.819Z,14.77
2019-02-28T17:16:41.229Z,17.23
2019-02-28T17:19:11.643Z,20.57
2019-02-28T17:21:42.098Z,16.57
2019-02-28T17:24:13.255Z,20.30
2019-02-28T17:27:06.332Z,16.40
2019-02-28T17:30:00.436Z,20.33
2019-02-28T17:32:32.315Z,18.90
2019-02-28T17:35:02.911Z,13.80
2019-02-28T17:37:34.376Z,12.87
2019-02-28T17:40:06.050Z,16.17
2019-02-28T17:42:38.570Z,14.95
2019-02-28T17:45:16.435Z,15.70
2019-02-28T17:48:17.971Z,10.98
2019-02-28T17:50:56.458Z,13.53
2019-02-28T17:54:20.883Z,13.10
2019-02-28T17:57:32.290Z,7.57
2019-02-28T18:00:52.893Z,12.20
2019-02-28T18:04:01.483Z,7.17
2019-02-28T18:07:08.865Z,11.20
2019-02-28T18:10:05.157Z,6.63
2019-02-28T18:13:39.174Z,5.43
2019-02-28T18:17:11.847Z,5.17
2019-02-28T18:20:10.467Z,7.53
2019-02-28T18:23:27.779Z,6.10
2019-02-28T18:26:38.740Z,7.03
2019-02-28T18:29:32.820Z,11.13
2019-02-28T18:32:03.145Z,7.03
2019-02-28T18:34:35.421Z,6.90
2019-02-28T18:37:06.829Z,8.00
2019-02-28T18:39:37.172Z,12.93
2019-02-28T18:42:07.566Z,20.27
2019-02-28T18:44:41.045Z,6.83
2019-02-28T18:47:11.343Z,8.90
2019-02-28T18:49:41.672Z,9.03
2019-02-28T18:52:11.999Z,10.40
2019-02-28T18:54:43.135Z,9.87
2019-02-28T18:57:13.819Z,7.03
2019-02-28T18:59:44.178Z,8.87
2019-02-28T19:02:15.561Z,8.90
2019-02-28T19:04:47.050Z,6.50
2019-02-28T19:07:17.586Z,7.83
2019-02-28T19:09:48.023Z,9.53
2019-02-28T19:12:18.357Z,6.93
2019-02-28T19:14:48.760Z,8.60
2019-02-28T19:17:19.082Z,7.83
2019-02-28T19:19:49.496Z,6.60
2019-02-28T19:22:19.929Z,7.17
2019-02-28T19:24:50.686Z,8.70
2019-02-28T19:27:21.041Z,8.40
2019-02-28T19:29:52.050Z,6.50
2019-02-28T19:32:24.403Z,6.97
2019-02-28T19:34:54.935Z,4.90
2019-02-28T19:37:25.298Z,6.73
2019-02-28T19:39:55.738Z,8.30
2019-02-28T19:42:26.101Z,5.83
2019-02-28T19:44:56.743Z,9.93
2019-02-28T19:47:27.062Z,8.13
2019-02-28T19:49:57.406Z,7.50
2019-02-28T19:52:27.739Z,9.63
2019-02-28T19:54:58.155Z,7.30
2019-02-28T19:57:28.497Z,8.73
2019-02-28T19:59:59.663Z,8.80
2019-02-28T20:02:30.308Z,8.47
2019-02-28T20:05:01.608Z,6.93
2019-02-28T20:07:34.503Z,9.47
2019-02-28T20:10:08.357Z,11.93
2019-02-28T20:12:39.280Z,10.50
2019-02-28T20:15:13.495Z,9.97
2019-02-28T20:17:44.125Z,7.77
2019-02-28T20:20:15.903Z,13.20
2019-02-28T20:22:47.486Z,10.27
2019-02-28T20:25:18.230Z,8.73
2019-02-28T20:27:48.838Z,12.45
2019-02-28T20:30:19.752Z,9.70
2019-02-28T20:32:50.271Z,7.93
2019-02-28T20:35:26.704Z,6.43
2019-02-28T20:37:53.628Z,7.53
2019-02-28T20:40:24.074Z,8.27
2019-02-28T20:42:57.262Z,7.90
2019-02-28T20:45:28.841Z,11.37
2019-02-28T20:47:59.402Z,9.83
2019-02-28T20:50:32.690Z,6.67
2019-02-28T20:53:03.130Z,8.93
2019-02-28T20:55:33.678Z,11.00
2019-02-28T20:58:04.095Z,8.77
2019-02-28T21:00:34.564Z,10.43
2019-02-28T21:03:05.085Z,11.03
2019-02-28T21:05:35.631Z,13.03
2019-02-28T21:08:06.141Z,10.30
2019-02-28T21:10:36.715Z,10.33
2019-02-28T21:13:07.156Z,7.03
2019-02-28T21:15:39.082Z,10.27
2019-02-28T21:18:10.005Z,10.53
2019-02-28T21:20:42.292Z,9.17
2019-02-28T21:23:12.655Z,7.60
2019-02-28T21:25:43.038Z,5.83
2019-02-28T21:28:13.556Z,7.13
2019-02-28T21:30:44.194Z,7.77
2019-02-28T21:33:14.538Z,13.97
2019-02-28T21:35:45.241Z,11.37
2019-02-28T21:38:15.718Z,15.27
2019-02-28T21:40:46.714Z,12.53
2019-02-28T21:43:17.165Z,13.73
2019-02-28T21:45:47.826Z,12.17
2019-02-28T21:48:18.366Z,13.60
2019-02-28T21:50:48.918Z,11.90
2019-02-28T21:53:19.340Z,12.53
2019-02-28T21:55:49.797Z,8.53
2019-02-28T21:58:20.199Z,10.33
2019-02-28T22:00:50.738Z,10.70
2019-02-28T22:03:21.322Z,10.07
2019-02-28T22:05:51.711Z,12.67
2019-02-28T22:08:22.164Z,9.50
2019-02-28T22:10:52.623Z,11.83
2019-02-28T22:13:23.114Z,9.57
2019-02-28T22:15:53.559Z,11.80
2019-02-28T22:18:23.988Z,10.93
2019-02-28T22:20:54.446Z,9.40
2019-02-28T22:23:24.854Z,10.03
2019-02-28T22:25:55.293Z,9.87
2019-02-28T22:28:26.708Z,10.47
2019-02-28T22:31:18.840Z,11.50
2019-02-28T22:34:04.251Z,10.17
2019-02-28T22:36:38.342Z,10.70
2019-02-28T22:39:10.738Z,9.27
2019-02-28T22:41:41.215Z,9.57
2019-02-28T22:44:11.654Z,9.27
2019-02-28T22:46:42.093Z,7.53
2019-02-28T22:49:12.517Z,8.33
2019-02-28T22:51:42.946Z,8.00
2019-02-28T22:54:13.347Z,6.77
2019-02-28T22:56:43.799Z,9.27
2019-02-28T22:59:14.120Z,10.70
2019-02-28T23:01:45.160Z,11.90
2019-02-28T23:04:15.733Z,9.10
2019-02-28T23:06:46.142Z,10.50
2019-02-28T23:09:17.027Z,8.37
2019-02-28T23:11:47.472Z,10.20
2019-02-28T23:14:18.113Z,12.40
2019-02-28T23:16:48.566Z,9.10
2019-02-28T23:19:19.078Z,11.07
2019-02-28T23:21:49.683Z,9.37
2019-02-28T23:24:20.131Z,14.73
2019-02-28T23:27:15.574Z,13.37
2019-02-28T23:30:00.677Z,10.77
2019-02-28T23:32:37.490Z,10.37
2019-02-28T23:35:11.721Z,12.13
2019-02-28T23:37:42.165Z,10.30
2019-02-28T23:40:13.190Z,15.30
2019-02-28T23:42:43.674Z,12.10
2019-02-28T23:45:14.137Z,14.97
2019-02-28T23:47:50.130Z,10.17
2019-02-28T23:50:20.542Z,12.37
2019-02-28T23:52:51.058Z,13.27
2019-02-28T23:55:22.379Z,9.10
2019-02-28T23:57:53.011Z,15.70
